sensor_id;sensor_type;location;lat;lon;timestamp;P1;durP1;ratioP1;P2;durP2;ratioP2
48613;SDS011;34408;51.426;5.444;2022-11-15T00:01:00;10.57;;;6.07;;
48613;SDS011;34408;51.426;5.444;2022-11-15T00:03:28;9.85;;;6.28;;
48613;SDS011;34408;51.426;5.444;2022-11-15T00:06:00;10.57;;;6.68;;
48613;SDS011;34408;51.426;5.444;2022-11-15T00:08:30;10.38;;;6.18;;
48613;SDS011;34408;51.426;5.444;2022-11-15T00:11:00;9.27;;;6.90;;
48613;SDS011;34408;51.426;5.444;2022-11-15T00:13:29;14.70;;;7.75;;
48613;SDS011;34408;51.426;5.444;2022-11-15T00:15:58;10.23;;;6.13;;
48613;SDS011;34408;51.426;5.444;2022-11-15T00:18:26;10.30;;;6.93;;
48613;SDS011;34408;51.426;5.444;2022-11-15T00:20:54;12.48;;;5.72;;
48613;SDS011;34408;51.426;5.444;2022-11-15T00:23:22;10.63;;;6.22;;
48613;SDS011;34408;51.426;5.444;2022-11-15T00:25:55;11.30;;;6.38;;
48613;SDS011;34408;51.426;5.444;2022-11-15T00:28:25;9.05;;;6.50;;
48613;SDS011;34408;51.426;5.444;2022-11-15T00:30:53;7.80;;;5.65;;
48613;SDS011;34408;51.426;5.444;2022-11-15T00:33:21;10.27;;;5.95;;
48613;SDS011;34408;51.426;5.444;2022-11-15T00:35:48;9.10;;;5.68;;
48613;SDS011;34408;51.426;5.444;2022-11-15T00:38:16;10.55;;;6.40;;
48613;SDS011;34408;51.426;5.444;2022-11-15T00:40:44;8.85;;;6.18;;
48613;SDS011;34408;51.426;5.444;2022-11-15T00:43:11;10.52;;;5.57;;
48613;SDS011;34408;51.426;5.444;2022-11-15T00:45:40;11.60;;;5.90;;
48613;SDS011;34408;51.426;5.444;2022-11-15T00:48:08;9.60;;;5.88;;
48613;SDS011;34408;51.426;5.444;2022-11-15T00:50:37;8.40;;;6.28;;
48613;SDS011;34408;51.426;5.444;2022-11-15T00:53:04;8.93;;;5.55;;
48613;SDS011;34408;51.426;5.444;2022-11-15T00:55:32;10.95;;;6.57;;
48613;SDS011;34408;51.426;5.444;2022-11-15T00:58:00;9.05;;;5.47;;
48613;SDS011;34408;51.426;5.444;2022-11-15T01:00:27;12.95;;;5.72;;
48613;SDS011;34408;51.426;5.444;2022-11-15T01:02:57;8.10;;;5.78;;
48613;SDS011;34408;51.426;5.444;2022-11-15T01:05:24;8.77;;;5.65;;
48613;SDS011;34408;51.426;5.444;2022-11-15T01:07:52;8.77;;;5.53;;
48613;SDS011;34408;51.426;5.444;2022-11-15T01:10:20;11.05;;;5.78;;
48613;SDS011;34408;51.426;5.444;2022-11-15T01:12:48;10.18;;;5.93;;
48613;SDS011;34408;51.426;5.444;2022-11-15T01:15:17;8.90;;;5.32;;
48613;SDS011;34408;51.426;5.444;2022-11-15T01:17:44;8.65;;;5.80;;
48613;SDS011;34408;51.426;5.444;2022-11-15T01:20:13;10.57;;;6.13;;
48613;SDS011;34408;51.426;5.444;2022-11-15T01:22:41;8.35;;;5.82;;
48613;SDS011;34408;51.426;5.444;2022-11-15T01:25:09;7.38;;;5.13;;
48613;SDS011;34408;51.426;5.444;2022-11-15T01:27:37;9.52;;;5.13;;
48613;SDS011;34408;51.426;5.444;2022-11-15T01:30:05;8.02;;;5.20;;
48613;SDS011;34408;51.426;5.444;2022-11-15T01:32:34;8.25;;;5.38;;
48613;SDS011;34408;51.426;5.444;2022-11-15T01:35:02;9.45;;;5.43;;
48613;SDS011;34408;51.426;5.444;2022-11-15T01:37:31;7.10;;;4.90;;
48613;SDS011;34408;51.426;5.444;2022-11-15T01:39:59;8.32;;;5.25;;
48613;SDS011;34408;51.426;5.444;2022-11-15T01:42:26;8.48;;;5.38;;
48613;SDS011;34408;51.426;5.444;2022-11-15T01:44:54;8.80;;;5.45;;
48613;SDS011;34408;51.426;5.444;2022-11-15T01:47:23;9.02;;;4.97;;
48613;SDS011;34408;51.426;5.444;2022-11-15T01:49:55;8.20;;;5.30;;
48613;SDS011;34408;51.426;5.444;2022-11-15T01:52:27;10.32;;;5.40;;
48613;SDS011;34408;51.426;5.444;2022-11-15T01:55:02;7.50;;;5.47;;
48613;SDS011;34408;51.426;5.444;2022-11-15T01:57:34;9.15;;;4.63;;
48613;SDS011;34408;51.426;5.444;2022-11-15T02:00:03;8.10;;;5.15;;
48613;SDS011;34408;51.426;5.444;2022-11-15T02:02:32;8.75;;;5.25;;
48613;SDS011;34408;51.426;5.444;2022-11-15T02:05:01;9.95;;;5.18;;
48613;SDS011;34408;51.426;5.444;2022-11-15T02:07:30;8.05;;;5.10;;
48613;SDS011;34408;51.426;5.444;2022-11-15T02:10:01;9.48;;;5.60;;
48613;SDS011;34408;51.426;5.444;2022-11-15T02:12:33;7.32;;;4.20;;
48613;SDS011;34408;51.426;5.444;2022-11-15T02:15:02;10.60;;;5.22;;
48613;SDS011;34408;51.426;5.444;2022-11-15T02:17:33;7.35;;;4.80;;
48613;SDS011;34408;51.426;5.444;2022-11-15T02:23:31;9.20;;;5.03;;
48613;SDS011;34408;51.426;5.444;2022-11-15T02:26:29;7.80;;;4.30;;
48613;SDS011;34408;51.426;5.444;2022-11-15T02:29:26;8.38;;;5.03;;
48613;SDS011;34408;51.426;5.444;2022-11-15T02:32:11;9.02;;;5.45;;
48613;SDS011;34408;51.426;5.444;2022-11-15T02:34:48;7.80;;;4.82;;
48613;SDS011;34408;51.426;5.444;2022-11-15T02:37:24;6.72;;;4.72;;
48613;SDS011;34408;51.426;5.444;2022-11-15T02:42:33;9.00;;;4.90;;
48613;SDS011;34408;51.426;5.444;2022-11-15T02:45:23;10.02;;;5.30;;
48613;SDS011;34408;51.426;5.444;2022-11-15T02:47:56;9.55;;;5.45;;
48613;SDS011;34408;51.426;5.444;2022-11-15T02:50:28;11.85;;;5.68;;
48613;SDS011;34408;51.426;5.444;2022-11-15T02:52:58;8.40;;;5.35;;
48613;SDS011;34408;51.426;5.444;2022-11-15T02:55:28;10.60;;;5.15;;
48613;SDS011;34408;51.426;5.444;2022-11-15T02:58:04;7.43;;;5.57;;
48613;SDS011;34408;51.426;5.444;2022-11-15T03:00:42;8.13;;;5.13;;
48613;SDS011;34408;51.426;5.444;2022-11-15T03:03:20;7.50;;;4.93;;
48613;SDS011;34408;51.426;5.444;2022-11-15T03:06:09;6.72;;;4.63;;
48613;SDS011;34408;51.426;5.444;2022-11-15T03:08:51;7.13;;;4.60;;
48613;SDS011;34408;51.426;5.444;2022-11-15T03:11:29;7.22;;;4.75;;
48613;SDS011;34408;51.426;5.444;2022-11-15T03:14:00;9.20;;;5.25;;
48613;SDS011;34408;51.426;5.444;2022-11-15T03:16:34;6.72;;;4.65;;
48613;SDS011;34408;51.426;5.444;2022-11-15T03:19:06;8.10;;;5.00;;
48613;SDS011;34408;51.426;5.444;2022-11-15T03:21:39;8.98;;;5.00;;
48613;SDS011;34408;51.426;5.444;2022-11-15T03:24:08;8.43;;;5.05;;
48613;SDS011;34408;51.426;5.444;2022-11-15T03:26:36;7.00;;;5.38;;
48613;SDS011;34408;51.426;5.444;2022-11-15T03:29:08;10.80;;;4.97;;
48613;SDS011;34408;51.426;5.444;2022-11-15T03:31:43;12.55;;;5.47;;
48613;SDS011;34408;51.426;5.444;2022-11-15T03:34:20;8.25;;;4.95;;
48613;SDS011;34408;51.426;5.444;2022-11-15T03:36:53;8.63;;;4.72;;
48613;SDS011;34408;51.426;5.444;2022-11-15T03:39:21;8.98;;;4.60;;
48613;SDS011;34408;51.426;5.444;2022-11-15T03:41:52;7.03;;;5.03;;
48613;SDS011;34408;51.426;5.444;2022-11-15T03:44:32;7.28;;;4.43;;
48613;SDS011;34408;51.426;5.444;2022-11-15T03:47:07;10.68;;;4.53;;
48613;SDS011;34408;51.426;5.444;2022-11-15T03:49:42;11.13;;;4.88;;
48613;SDS011;34408;51.426;5.444;2022-11-15T03:52:13;9.63;;;5.15;;
48613;SDS011;34408;51.426;5.444;2022-11-15T03:54:49;8.45;;;4.93;;
48613;SDS011;34408;51.426;5.444;2022-11-15T03:57:17;9.25;;;4.90;;
48613;SDS011;34408;51.426;5.444;2022-11-15T03:59:45;11.85;;;5.18;;
48613;SDS011;34408;51.426;5.444;2022-11-15T04:02:13;8.80;;;5.00;;
48613;SDS011;34408;51.426;5.444;2022-11-15T04:04:42;9.15;;;4.80;;
48613;SDS011;34408;51.426;5.444;2022-11-15T04:07:10;11.57;;;5.13;;
48613;SDS011;34408;51.426;5.444;2022-11-15T04:09:38;10.25;;;4.68;;
48613;SDS011;34408;51.426;5.444;2022-11-15T04:12:20;9.00;;;4.90;;
48613;SDS011;34408;51.426;5.444;2022-11-15T04:14:57;7.63;;;4.72;;
48613;SDS011;34408;51.426;5.444;2022-11-15T04:17:35;9.98;;;5.72;;
48613;SDS011;34408;51.426;5.444;2022-11-15T04:20:07;9.63;;;4.85;;
48613;SDS011;34408;51.426;5.444;2022-11-15T04:22:55;9.63;;;4.97;;
48613;SDS011;34408;51.426;5.444;2022-11-15T04:25:41;7.47;;;4.93;;
48613;SDS011;34408;51.426;5.444;2022-11-15T04:28:10;7.95;;;4.53;;
48613;SDS011;34408;51.426;5.444;2022-11-15T04:30:38;6.65;;;4.03;;
48613;SDS011;34408;51.426;5.444;2022-11-15T04:33:06;8.43;;;5.18;;
48613;SDS011;34408;51.426;5.444;2022-11-15T04:35:35;8.15;;;4.85;;
48613;SDS011;34408;51.426;5.444;2022-11-15T04:38:04;7.78;;;5.10;;
48613;SDS011;34408;51.426;5.444;2022-11-15T04:40:32;7.65;;;5.20;;
48613;SDS011;34408;51.426;5.444;2022-11-15T04:43:00;11.40;;;6.13;;
48613;SDS011;34408;51.426;5.444;2022-11-15T04:45:29;6.57;;;4.72;;
48613;SDS011;34408;51.426;5.444;2022-11-15T04:47:57;8.20;;;4.88;;
48613;SDS011;34408;51.426;5.444;2022-11-15T04:50:25;7.47;;;5.05;;
48613;SDS011;34408;51.426;5.444;2022-11-15T04:52:54;8.77;;;5.40;;
48613;SDS011;34408;51.426;5.444;2022-11-15T04:55:21;7.47;;;4.78;;
48613;SDS011;34408;51.426;5.444;2022-11-15T04:57:56;8.52;;;5.25;;
48613;SDS011;34408;51.426;5.444;2022-11-15T05:00:25;7.22;;;4.68;;
48613;SDS011;34408;51.426;5.444;2022-11-15T05:02:54;8.77;;;4.95;;
48613;SDS011;34408;51.426;5.444;2022-11-15T05:05:39;8.15;;;4.95;;
48613;SDS011;34408;51.426;5.444;2022-11-15T05:08:08;6.88;;;4.65;;
48613;SDS011;34408;51.426;5.444;2022-11-15T05:10:36;8.95;;;5.47;;
48613;SDS011;34408;51.426;5.444;2022-11-15T05:13:03;8.38;;;5.32;;
48613;SDS011;34408;51.426;5.444;2022-11-15T05:15:31;9.27;;;5.45;;
48613;SDS011;34408;51.426;5.444;2022-11-15T05:17:59;8.45;;;5.57;;
48613;SDS011;34408;51.426;5.444;2022-11-15T05:20:26;12.13;;;5.07;;
48613;SDS011;34408;51.426;5.444;2022-11-15T05:22:54;10.38;;;5.50;;
48613;SDS011;34408;51.426;5.444;2022-11-15T05:25:23;8.82;;;4.63;;
48613;SDS011;34408;51.426;5.444;2022-11-15T05:27:52;8.20;;;5.22;;
48613;SDS011;34408;51.426;5.444;2022-11-15T05:30:20;9.43;;;5.18;;
48613;SDS011;34408;51.426;5.444;2022-11-15T05:32:47;10.07;;;4.57;;
48613;SDS011;34408;51.426;5.444;2022-11-15T05:35:18;8.00;;;5.13;;
48613;SDS011;34408;51.426;5.444;2022-11-15T05:37:50;10.50;;;5.55;;
48613;SDS011;34408;51.426;5.444;2022-11-15T05:40:17;10.40;;;4.60;;
48613;SDS011;34408;51.426;5.444;2022-11-15T05:42:46;9.55;;;5.00;;
48613;SDS011;34408;51.426;5.444;2022-11-15T05:45:15;7.40;;;4.75;;
48613;SDS011;34408;51.426;5.444;2022-11-15T05:47:51;7.10;;;4.28;;
48613;SDS011;34408;51.426;5.444;2022-11-15T05:50:22;7.18;;;4.38;;
48613;SDS011;34408;51.426;5.444;2022-11-15T05:52:50;6.13;;;4.32;;
48613;SDS011;34408;51.426;5.444;2022-11-15T05:55:19;8.75;;;4.57;;
48613;SDS011;34408;51.426;5.444;2022-11-15T05:57:48;7.18;;;4.45;;
48613;SDS011;34408;51.426;5.444;2022-11-15T06:00:16;8.35;;;4.70;;
48613;SDS011;34408;51.426;5.444;2022-11-15T06:02:44;8.20;;;5.57;;
48613;SDS011;34408;51.426;5.444;2022-11-15T06:05:12;8.75;;;5.25;;
48613;SDS011;34408;51.426;5.444;2022-11-15T06:07:39;8.63;;;4.68;;
48613;SDS011;34408;51.426;5.444;2022-11-15T06:10:08;8.43;;;5.55;;
48613;SDS011;34408;51.426;5.444;2022-11-15T06:12:36;7.63;;;4.28;;
48613;SDS011;34408;51.426;5.444;2022-11-15T06:15:05;6.95;;;4.97;;
48613;SDS011;34408;51.426;5.444;2022-11-15T06:17:34;8.75;;;5.35;;
48613;SDS011;34408;51.426;5.444;2022-11-15T06:20:02;6.85;;;4.57;;
48613;SDS011;34408;51.426;5.444;2022-11-15T06:22:30;10.48;;;5.75;;
48613;SDS011;34408;51.426;5.444;2022-11-15T06:24:57;10.02;;;5.25;;
48613;SDS011;34408;51.426;5.444;2022-11-15T06:27:30;11.00;;;5.75;;
48613;SDS011;34408;51.426;5.444;2022-11-15T06:29:58;8.95;;;5.82;;
48613;SDS011;34408;51.426;5.444;2022-11-15T06:32:28;9.30;;;5.43;;
48613;SDS011;34408;51.426;5.444;2022-11-15T06:34:56;9.93;;;4.88;;
48613;SDS011;34408;51.426;5.444;2022-11-15T06:37:24;14.88;;;5.60;;
48613;SDS011;34408;51.426;5.444;2022-11-15T06:39:51;11.50;;;5.40;;
48613;SDS011;34408;51.426;5.444;2022-11-15T06:42:19;8.48;;;4.95;;
48613;SDS011;34408;51.426;5.444;2022-11-15T06:44:47;8.10;;;4.93;;
48613;SDS011;34408;51.426;5.444;2022-11-15T06:47:14;8.85;;;5.22;;
48613;SDS011;34408;51.426;5.444;2022-11-15T06:49:43;9.45;;;5.03;;
48613;SDS011;34408;51.426;5.444;2022-11-15T06:52:11;9.55;;;4.50;;
48613;SDS011;34408;51.426;5.444;2022-11-15T06:54:39;12.50;;;4.72;;
48613;SDS011;34408;51.426;5.444;2022-11-15T06:57:06;10.27;;;4.53;;
48613;SDS011;34408;51.426;5.444;2022-11-15T06:59:34;6.95;;;4.88;;
48613;SDS011;34408;51.426;5.444;2022-11-15T07:02:06;9.60;;;5.00;;
48613;SDS011;34408;51.426;5.444;2022-11-15T07:04:38;7.45;;;4.30;;
48613;SDS011;34408;51.426;5.444;2022-11-15T07:07:07;7.22;;;4.43;;
48613;SDS011;34408;51.426;5.444;2022-11-15T07:09:35;8.98;;;4.80;;
48613;SDS011;34408;51.426;5.444;2022-11-15T07:12:03;6.35;;;4.00;;
48613;SDS011;34408;51.426;5.444;2022-11-15T07:14:33;7.30;;;4.30;;
48613;SDS011;34408;51.426;5.444;2022-11-15T07:17:02;7.80;;;4.78;;
48613;SDS011;34408;51.426;5.444;2022-11-15T07:19:30;7.07;;;4.60;;
48613;SDS011;34408;51.426;5.444;2022-11-15T07:21:58;7.53;;;4.70;;
48613;SDS011;34408;51.426;5.444;2022-11-15T07:24:27;8.57;;;4.18;;
48613;SDS011;34408;51.426;5.444;2022-11-15T07:26:55;8.15;;;4.50;;
48613;SDS011;34408;51.426;5.444;2022-11-15T07:29:23;8.15;;;4.60;;
48613;SDS011;34408;51.426;5.444;2022-11-15T07:31:51;8.23;;;4.80;;
48613;SDS011;34408;51.426;5.444;2022-11-15T07:34:18;6.57;;;4.40;;
48613;SDS011;34408;51.426;5.444;2022-11-15T07:36:46;8.55;;;4.40;;
48613;SDS011;34408;51.426;5.444;2022-11-15T07:39:14;9.65;;;4.45;;
48613;SDS011;34408;51.426;5.444;2022-11-15T07:41:43;9.35;;;4.57;;
48613;SDS011;34408;51.426;5.444;2022-11-15T07:44:10;5.88;;;3.72;;
48613;SDS011;34408;51.426;5.444;2022-11-15T07:46:38;8.55;;;4.75;;
48613;SDS011;34408;51.426;5.444;2022-11-15T07:49:06;5.82;;;3.67;;
48613;SDS011;34408;51.426;5.444;2022-11-15T07:51:34;7.22;;;3.92;;
48613;SDS011;34408;51.426;5.444;2022-11-15T07:54:01;7.40;;;3.95;;
48613;SDS011;34408;51.426;5.444;2022-11-15T07:56:29;6.75;;;3.75;;
48613;SDS011;34408;51.426;5.444;2022-11-15T07:58:58;6.93;;;4.20;;
48613;SDS011;34408;51.426;5.444;2022-11-15T08:01:27;5.82;;;3.67;;
48613;SDS011;34408;51.426;5.444;2022-11-15T08:03:55;6.30;;;3.78;;
48613;SDS011;34408;51.426;5.444;2022-11-15T08:06:22;5.60;;;3.58;;
48613;SDS011;34408;51.426;5.444;2022-11-15T08:08:50;6.60;;;3.63;;
48613;SDS011;34408;51.426;5.444;2022-11-15T08:11:18;6.97;;;4.55;;
48613;SDS011;34408;51.426;5.444;2022-11-15T08:13:45;7.57;;;4.18;;
48613;SDS011;34408;51.426;5.444;2022-11-15T08:16:14;6.38;;;3.45;;
48613;SDS011;34408;51.426;5.444;2022-11-15T08:18:42;7.22;;;3.75;;
48613;SDS011;34408;51.426;5.444;2022-11-15T08:21:17;6.95;;;3.58;;
48613;SDS011;34408;51.426;5.444;2022-11-15T08:23:47;5.65;;;3.65;;
48613;SDS011;34408;51.426;5.444;2022-11-15T08:26:15;6.72;;;3.35;;
48613;SDS011;34408;51.426;5.444;2022-11-15T08:28:42;6.78;;;3.70;;
48613;SDS011;34408;51.426;5.444;2022-11-15T08:31:13;4.88;;;3.20;;
48613;SDS011;34408;51.426;5.444;2022-11-15T08:33:44;5.00;;;3.63;;
48613;SDS011;34408;51.426;5.444;2022-11-15T08:36:12;5.43;;;3.22;;
48613;SDS011;34408;51.426;5.444;2022-11-15T08:38:41;8.35;;;3.50;;
48613;SDS011;34408;51.426;5.444;2022-11-15T08:41:10;9.38;;;3.65;;
48613;SDS011;34408;51.426;5.444;2022-11-15T08:43:40;6.32;;;3.08;;
48613;SDS011;34408;51.426;5.444;2022-11-15T08:46:08;5.68;;;3.22;;
48613;SDS011;34408;51.426;5.444;2022-11-15T08:48:41;7.28;;;3.33;;
48613;SDS011;34408;51.426;5.444;2022-11-15T08:51:09;5.07;;;2.88;;
48613;SDS011;34408;51.426;5.444;2022-11-15T08:53:36;7.88;;;3.92;;
48613;SDS011;34408;51.426;5.444;2022-11-15T08:56:06;6.65;;;3.22;;
48613;SDS011;34408;51.426;5.444;2022-11-15T08:58:35;6.88;;;3.10;;
48613;SDS011;34408;51.426;5.444;2022-11-15T09:01:02;7.47;;;3.10;;
48613;SDS011;34408;51.426;5.444;2022-11-15T09:03:31;4.47;;;2.60;;
48613;SDS011;34408;51.426;5.444;2022-11-15T09:06:00;3.97;;;2.95;;
48613;SDS011;34408;51.426;5.444;2022-11-15T09:08:29;6.18;;;3.47;;
48613;SDS011;34408;51.426;5.444;2022-11-15T09:11:13;5.93;;;2.33;;
48613;SDS011;34408;51.426;5.444;2022-11-15T09:13:42;6.00;;;2.85;;
48613;SDS011;34408;51.426;5.444;2022-11-15T09:16:10;6.47;;;2.67;;
48613;SDS011;34408;51.426;5.444;2022-11-15T09:18:38;6.40;;;2.60;;
48613;SDS011;34408;51.426;5.444;2022-11-15T09:21:08;3.90;;;2.08;;
48613;SDS011;34408;51.426;5.444;2022-11-15T09:23:36;4.90;;;2.47;;
48613;SDS011;34408;51.426;5.444;2022-11-15T09:26:04;4.30;;;2.30;;
48613;SDS011;34408;51.426;5.444;2022-11-15T09:28:33;7.32;;;2.70;;
48613;SDS011;34408;51.426;5.444;2022-11-15T09:31:03;9.95;;;2.10;;
48613;SDS011;34408;51.426;5.444;2022-11-15T09:33:32;2.85;;;1.90;;
48613;SDS011;34408;51.426;5.444;2022-11-15T09:36:00;5.32;;;1.92;;
48613;SDS011;34408;51.426;5.444;2022-11-15T09:38:31;3.22;;;1.98;;
48613;SDS011;34408;51.426;5.444;2022-11-15T09:44:22;4.03;;;2.25;;
48613;SDS011;34408;51.426;5.444;2022-11-15T09:47:17;2.45;;;1.65;;
48613;SDS011;34408;51.426;5.444;2022-11-15T09:50:06;4.47;;;1.52;;
48613;SDS011;34408;51.426;5.444;2022-11-15T09:52:37;2.93;;;1.50;;
48613;SDS011;34408;51.426;5.444;2022-11-15T09:55:10;7.93;;;1.80;;
48613;SDS011;34408;51.426;5.444;2022-11-15T09:57:49;2.75;;;1.45;;
48613;SDS011;34408;51.426;5.444;2022-11-15T10:00:22;1.42;;;1.08;;
48613;SDS011;34408;51.426;5.444;2022-11-15T10:03:12;2.17;;;1.10;;
48613;SDS011;34408;51.426;5.444;2022-11-15T10:05:43;5.85;;;1.98;;
48613;SDS011;34408;51.426;5.444;2022-11-15T10:08:17;3.33;;;1.40;;
48613;SDS011;34408;51.426;5.444;2022-11-15T10:10:55;3.33;;;1.58;;
48613;SDS011;34408;51.426;5.444;2022-11-15T10:13:44;3.88;;;1.38;;
48613;SDS011;34408;51.426;5.444;2022-11-15T10:16:21;2.20;;;1.35;;
48613;SDS011;34408;51.426;5.444;2022-11-15T10:19:04;2.25;;;1.20;;
48613;SDS011;34408;51.426;5.444;2022-11-15T10:21:40;5.20;;;2.03;;
48613;SDS011;34408;51.426;5.444;2022-11-15T10:24:18;3.53;;;1.30;;
48613;SDS011;34408;51.426;5.444;2022-11-15T10:26:49;3.47;;;1.15;;
48613;SDS011;34408;51.426;5.444;2022-11-15T10:29:18;2.22;;;1.13;;
48613;SDS011;34408;51.426;5.444;2022-11-15T10:31:52;3.65;;;1.27;;
48613;SDS011;34408;51.426;5.444;2022-11-15T10:34:20;5.40;;;1.30;;
48613;SDS011;34408;51.426;5.444;2022-11-15T10:36:53;3.15;;;1.30;;
48613;SDS011;34408;51.426;5.444;2022-11-15T10:39:23;2.28;;;0.90;;
48613;SDS011;34408;51.426;5.444;2022-11-15T10:41:53;4.45;;;1.27;;
48613;SDS011;34408;51.426;5.444;2022-11-15T10:44:22;2.13;;;1.25;;
48613;SDS011;34408;51.426;5.444;2022-11-15T10:47:06;4.35;;;1.60;;
48613;SDS011;34408;51.426;5.444;2022-11-15T10:49:53;5.10;;;1.63;;
48613;SDS011;34408;51.426;5.444;2022-11-15T10:52:25;2.67;;;1.17;;
48613;SDS011;34408;51.426;5.444;2022-11-15T10:54:55;4.28;;;1.08;;
48613;SDS011;34408;51.426;5.444;2022-11-15T10:57:30;4.90;;;1.10;;
48613;SDS011;34408;51.426;5.444;2022-11-15T11:00:01;5.45;;;1.20;;
48613;SDS011;34408;51.426;5.444;2022-11-15T11:02:32;4.90;;;1.38;;
48613;SDS011;34408;51.426;5.444;2022-11-15T11:05:03;4.55;;;1.15;;
48613;SDS011;34408;51.426;5.444;2022-11-15T11:07:33;6.63;;;1.67;;
48613;SDS011;34408;51.426;5.444;2022-11-15T11:10:04;3.92;;;1.35;;
48613;SDS011;34408;51.426;5.444;2022-11-15T11:13:15;4.35;;;2.33;;
48613;SDS011;34408;51.426;5.444;2022-11-15T11:15:52;4.60;;;1.15;;
48613;SDS011;34408;51.426;5.444;2022-11-15T11:18:27;3.40;;;1.30;;
48613;SDS011;34408;51.426;5.444;2022-11-15T11:21:02;5.07;;;1.23;;
48613;SDS011;34408;51.426;5.444;2022-11-15T11:23:38;1.75;;;1.05;;
48613;SDS011;34408;51.426;5.444;2022-11-15T11:26:18;6.35;;;1.15;;
48613;SDS011;34408;51.426;5.444;2022-11-15T11:29:07;3.50;;;1.52;;
48613;SDS011;34408;51.426;5.444;2022-11-15T11:31:58;3.80;;;1.60;;
48613;SDS011;34408;51.426;5.444;2022-11-15T11:34:36;2.03;;;1.08;;
48613;SDS011;34408;51.426;5.444;2022-11-15T11:37:17;2.25;;;1.25;;
48613;SDS011;34408;51.426;5.444;2022-11-15T11:39:53;3.28;;;1.27;;
48613;SDS011;34408;51.426;5.444;2022-11-15T11:42:37;4.07;;;1.30;;
48613;SDS011;34408;51.426;5.444;2022-11-15T11:45:19;2.10;;;1.10;;
48613;SDS011;34408;51.426;5.444;2022-11-15T11:47:59;3.20;;;1.38;;
48613;SDS011;34408;51.426;5.444;2022-11-15T11:50:40;5.53;;;1.55;;
48613;SDS011;34408;51.426;5.444;2022-11-15T11:53:11;5.57;;;1.50;;
48613;SDS011;34408;51.426;5.444;2022-11-15T11:55:43;5.65;;;1.45;;
48613;SDS011;34408;51.426;5.444;2022-11-15T11:58:14;4.15;;;1.30;;
48613;SDS011;34408;51.426;5.444;2022-11-15T12:00:47;5.03;;;1.35;;
48613;SDS011;34408;51.426;5.444;2022-11-15T12:03:22;4.78;;;1.30;;
48613;SDS011;34408;51.426;5.444;2022-11-15T12:08:28;3.25;;;1.27;;
48613;SDS011;34408;51.426;5.444;2022-11-15T12:11:03;5.30;;;1.42;;
48613;SDS011;34408;51.426;5.444;2022-11-15T12:13:37;4.70;;;1.27;;
48613;SDS011;34408;51.426;5.444;2022-11-15T12:16:10;3.08;;;1.05;;
48613;SDS011;34408;51.426;5.444;2022-11-15T12:18:44;1.67;;;1.00;;
48613;SDS011;34408;51.426;5.444;2022-11-15T12:21:17;3.80;;;1.30;;
48613;SDS011;34408;51.426;5.444;2022-11-15T12:23:54;4.25;;;1.20;;
48613;SDS011;34408;51.426;5.444;2022-11-15T12:26:31;4.43;;;1.85;;
48613;SDS011;34408;51.426;5.444;2022-11-15T12:29:05;4.18;;;1.33;;
48613;SDS011;34408;51.426;5.444;2022-11-15T12:31:40;4.93;;;1.83;;
48613;SDS011;34408;51.426;5.444;2022-11-15T12:34:16;4.72;;;1.20;;
48613;SDS011;34408;51.426;5.444;2022-11-15T12:37:01;2.33;;;1.20;;
48613;SDS011;34408;51.426;5.444;2022-11-15T12:40:19;20.70;;;1.42;;
48613;SDS011;34408;51.426;5.444;2022-11-15T12:46:05;4.78;;;1.55;;
48613;SDS011;34408;51.426;5.444;2022-11-15T12:57:30;2.45;;;1.15;;
48613;SDS011;34408;51.426;5.444;2022-11-15T13:03:12;6.93;;;1.40;;
48613;SDS011;34408;51.426;5.444;2022-11-15T13:09:02;2.80;;;1.00;;
48613;SDS011;34408;51.426;5.444;2022-11-15T13:11:48;4.22;;;1.30;;
48613;SDS011;34408;51.426;5.444;2022-11-15T13:17:25;4.68;;;1.23;;
48613;SDS011;34408;51.426;5.444;2022-11-15T13:22:42;3.03;;;0.98;;
48613;SDS011;34408;51.426;5.444;2022-11-15T13:25:24;5.07;;;1.50;;
48613;SDS011;34408;51.426;5.444;2022-11-15T13:28:21;5.05;;;1.08;;
48613;SDS011;34408;51.426;5.444;2022-11-15T13:30:55;2.88;;;1.05;;
48613;SDS011;34408;51.426;5.444;2022-11-15T13:33:27;3.05;;;0.93;;
48613;SDS011;34408;51.426;5.444;2022-11-15T13:36:02;6.07;;;2.03;;
48613;SDS011;34408;51.426;5.444;2022-11-15T13:38:33;5.75;;;1.38;;
48613;SDS011;34408;51.426;5.444;2022-11-15T13:41:10;3.15;;;1.10;;
48613;SDS011;34408;51.426;5.444;2022-11-15T13:43:48;5.78;;;1.20;;
48613;SDS011;34408;51.426;5.444;2022-11-15T13:46:17;3.90;;;1.23;;
48613;SDS011;34408;51.426;5.444;2022-11-15T13:48:46;2.20;;;0.93;;
48613;SDS011;34408;51.426;5.444;2022-11-15T13:51:20;3.03;;;1.00;;
48613;SDS011;34408;51.426;5.444;2022-11-15T13:53:54;3.72;;;0.90;;
48613;SDS011;34408;51.426;5.444;2022-11-15T13:56:25;3.97;;;1.20;;
48613;SDS011;34408;51.426;5.444;2022-11-15T13:58:57;10.07;;;1.35;;
48613;SDS011;34408;51.426;5.444;2022-11-15T14:01:25;5.03;;;1.20;;
48613;SDS011;34408;51.426;5.444;2022-11-15T14:03:58;5.88;;;1.20;;
48613;SDS011;34408;51.426;5.444;2022-11-15T14:06:28;3.42;;;1.10;;
48613;SDS011;34408;51.426;5.444;2022-11-15T14:08:58;3.45;;;1.13;;
48613;SDS011;34408;51.426;5.444;2022-11-15T14:11:49;3.63;;;1.00;;
48613;SDS011;34408;51.426;5.444;2022-11-15T14:16:49;3.60;;;1.50;;
48613;SDS011;34408;51.426;5.444;2022-11-15T14:19:35;3.50;;;1.17;;
48613;SDS011;34408;51.426;5.444;2022-11-15T14:22:08;6.82;;;1.55;;
48613;SDS011;34408;51.426;5.444;2022-11-15T14:24:44;3.63;;;1.10;;
48613;SDS011;34408;51.426;5.444;2022-11-15T14:27:17;2.17;;;1.10;;
48613;SDS011;34408;51.426;5.444;2022-11-15T14:29:48;2.97;;;1.15;;
48613;SDS011;34408;51.426;5.444;2022-11-15T14:32:17;2.58;;;1.00;;
48613;SDS011;34408;51.426;5.444;2022-11-15T14:34:47;3.45;;;1.00;;
48613;SDS011;34408;51.426;5.444;2022-11-15T14:37:18;2.50;;;0.98;;
48613;SDS011;34408;51.426;5.444;2022-11-15T14:39:48;4.88;;;1.10;;
48613;SDS011;34408;51.426;5.444;2022-11-15T14:42:17;4.13;;;1.05;;
48613;SDS011;34408;51.426;5.444;2022-11-15T14:44:45;2.15;;;1.02;;
48613;SDS011;34408;51.426;5.444;2022-11-15T14:47:14;2.22;;;1.00;;
48613;SDS011;34408;51.426;5.444;2022-11-15T14:49:42;3.15;;;1.33;;
48613;SDS011;34408;51.426;5.444;2022-11-15T14:52:16;4.00;;;1.38;;
48613;SDS011;34408;51.426;5.444;2022-11-15T14:54:58;3.75;;;1.17;;
48613;SDS011;34408;51.426;5.444;2022-11-15T14:57:27;5.38;;;1.00;;
48613;SDS011;34408;51.426;5.444;2022-11-15T14:59:55;2.97;;;1.00;;
48613;SDS011;34408;51.426;5.444;2022-11-15T15:02:25;5.90;;;1.08;;
48613;SDS011;34408;51.426;5.444;2022-11-15T15:04:54;2.85;;;1.15;;
48613;SDS011;34408;51.426;5.444;2022-11-15T15:07:22;8.00;;;2.05;;
48613;SDS011;34408;51.426;5.444;2022-11-15T15:09:49;5.90;;;1.15;;
48613;SDS011;34408;51.426;5.444;2022-11-15T15:12:18;5.65;;;1.70;;
48613;SDS011;34408;51.426;5.444;2022-11-15T15:14:47;3.78;;;1.20;;
48613;SDS011;34408;51.426;5.444;2022-11-15T15:17:17;4.07;;;1.17;;
48613;SDS011;34408;51.426;5.444;2022-11-15T15:19:46;5.50;;;0.93;;
48613;SDS011;34408;51.426;5.444;2022-11-15T15:22:15;3.78;;;1.35;;
48613;SDS011;34408;51.426;5.444;2022-11-15T15:24:45;4.47;;;1.42;;
48613;SDS011;34408;51.426;5.444;2022-11-15T15:27:13;5.70;;;1.30;;
48613;SDS011;34408;51.426;5.444;2022-11-15T15:29:41;3.83;;;1.25;;
48613;SDS011;34408;51.426;5.444;2022-11-15T15:32:09;4.78;;;1.15;;
48613;SDS011;34408;51.426;5.444;2022-11-15T15:34:39;3.45;;;1.25;;
48613;SDS011;34408;51.426;5.444;2022-11-15T15:37:09;5.32;;;1.20;;
48613;SDS011;34408;51.426;5.444;2022-11-15T15:39:49;5.28;;;1.25;;
48613;SDS011;34408;51.426;5.444;2022-11-15T15:42:18;4.25;;;1.63;;
48613;SDS011;34408;51.426;5.444;2022-11-15T15:44:45;2.20;;;1.00;;
48613;SDS011;34408;51.426;5.444;2022-11-15T15:47:14;2.95;;;1.10;;
48613;SDS011;34408;51.426;5.444;2022-11-15T15:49:44;5.82;;;1.15;;
48613;SDS011;34408;51.426;5.444;2022-11-15T15:52:13;6.05;;;1.10;;